KYE weather

Rene Mouawad Air Base
Tripoli, North Governorate, Lebanon

Public forecast

Using degrees Celsius for public forecast. Weather courtesy of forecast.io.

METAR (pilot weather report)

Closest report is Bassel Al-Assad International Airport, 48.8 nm (90.4 km) N. Retrieved 2019/09/21 12:00 UTC (6 minutes ago):

OSLK 211200Z 27010KT 9999 SCT030 29/18 Q1011

TAF (pilot weather forecast)

Closest forecast is Bassel Al-Assad International Airport, 48.8 nm (90.4 km) N. Retrieved 2019/09/21 06:36 UTC (6 hours ago):

TAF TAF OSLK 210400Z 2106/2206 24010KT 9999 FEW030 BECMG 2120/2122 VRB03KT CAVOK